Time;durP1;ratioP1;P1;durP2;ratioP2;P2;SDS_P1;SDS_P2;PMS_P1;PMS_P2;Temp;Humidity;BMP_temperature;BMP_pressure;BME280_temperature;BME280_humidity;BME280_pressure;Samples;Min_cycle;Max_cycle;Signal;HPM_P1;HPM_P2
2022/11/18 00:01:11;;;;;;;8.35;1.98;;;;;;;9.22;100.00;99404.47;5256681;28;20039;-72
2022/11/18 00:03:43;;;;;;;4.68;1.83;;;;;;;9.13;100.00;99401.94;5257690;28;20028;-72
2022/11/18 00:06:17;;;;;;;3.22;1.45;;;;;;;9.11;100.00;99407.34;5255751;28;20122;-72
2022/11/18 00:08:50;;;;;;;8.60;2.03;;;;;;;9.07;100.00;99405.22;5257110;28;20086;-72
2022/11/18 00:14:21;;;;;;;3.60;1.70;;;;;;;9.07;100.00;99406.03;5257715;28;20065;-72
2022/11/18 00:17:00;;;;;;;5.13;1.90;;;;;;;9.12;100.00;99400.31;5258471;28;20100;-72
2022/11/18 00:19:39;;;;;;;5.35;2.00;;;;;;;9.15;100.00;99413.09;5257827;28;20037;-72
2022/11/18 00:22:11;;;;;;;4.82;1.70;;;;;;;9.07;100.00;99416.47;5256138;28;20037;-72
2022/11/18 00:24:43;;;;;;;4.88;1.83;;;;;;;9.04;100.00;99418.56;5256632;28;20085;-72
2022/11/18 00:27:14;;;;;;;4.25;2.03;;;;;;;8.95;100.00;99415.91;5256858;28;20489;-72
2022/11/18 00:29:45;;;;;;;5.57;1.90;;;;;;;8.97;100.00;99415.75;5257729;28;20029;-72
2022/11/18 00:32:17;;;;;;;6.43;1.88;;;;;;;8.95;100.00;99421.16;5256179;28;20562;-72
2022/11/18 00:34:48;;;;;;;4.95;1.90;;;;;;;9.01;100.00;99428.34;5258327;28;20513;-71
2022/11/18 00:37:19;;;;;;;4.93;2.40;;;;;;;9.01;100.00;99425.72;5239859;28;20508;-72
2022/11/18 00:39:50;;;;;;;6.40;2.00;;;;;;;9.04;100.00;99423.81;5238085;28;20536;-73
2022/11/18 00:45:11;;;;;;;5.43;1.77;;;;;;;9.08;100.00;99440.81;5257033;28;20068;-73
2022/11/18 00:47:43;;;;;;;5.05;1.80;;;;;;;9.11;100.00;99443.09;5254987;28;20020;-72
2022/11/18 00:50:14;;;;;;;4.70;2.28;;;;;;;9.12;100.00;99448.16;5257108;28;20037;-72
2022/11/18 00:52:46;;;;;;;5.97;1.88;;;;;;;9.12;100.00;99444.75;5257543;28;20421;-71
2022/11/18 00:55:17;;;;;;;4.97;2.13;;;;;;;9.13;100.00;99444.59;5256595;28;20554;-72
2022/11/18 00:57:48;;;;;;;5.53;1.98;;;;;;;9.10;100.00;99439.69;5256123;28;20029;-72
2022/11/18 01:00:20;;;;;;;4.38;1.50;;;;;;;9.13;100.00;99454.22;5257291;28;20039;-72
2022/11/18 01:02:51;;;;;;;5.70;1.58;;;;;;;9.15;100.00;99460.13;5255600;28;20505;-72
2022/11/18 01:05:22;;;;;;;3.63;1.73;;;;;;;9.15;100.00;99460.94;5256010;28;20036;-72
2022/11/18 01:07:53;;;;;;;3.38;1.60;;;;;;;9.17;100.00;99466.00;5257565;28;20090;-72
2022/11/18 01:10:25;;;;;;;5.70;1.83;;;;;;;9.18;100.00;99467.66;5255496;28;20128;-72
2022/11/18 01:15:49;;;;;;;4.20;1.70;;;;;;;9.24;100.00;99472.22;5256483;28;20394;-72
2022/11/18 01:18:23;;;;;;;5.47;2.10;;;;;;;9.19;100.00;99477.94;5238108;28;20048;-72
2022/11/18 01:21:00;;;;;;;6.40;1.95;;;;;;;9.25;100.00;99479.13;5254385;28;20078;-72
2022/11/18 01:23:32;;;;;;;3.92;1.50;;;;;;;9.16;100.00;99472.19;5255103;28;20267;-72
2022/11/18 01:26:05;;;;;;;6.78;1.95;;;;;;;9.23;100.00;99478.44;5256452;28;20446;-72
2022/11/18 01:28:37;;;;;;;4.40;1.83;;;;;;;9.23;100.00;99491.50;5239075;28;20098;-72
2022/11/18 01:31:12;;;;;;;4.68;1.60;;;;;;;9.30;100.00;99497.75;5254903;28;20166;-72
2022/11/18 01:33:43;;;;;;;5.85;1.60;;;;;;;9.26;100.00;99497.25;5256588;28;20141;-72
2022/11/18 01:36:21;;;;;;;5.57;2.03;;;;;;;9.37;100.00;99500.59;5253843;28;20025;-72
2022/11/18 01:38:55;;;;;;;4.22;1.80;;;;;;;9.38;100.00;99499.59;5256038;28;20040;-72
2022/11/18 01:41:26;;;;;;;4.10;1.60;;;;;;;9.32;100.00;99508.91;5256965;28;20103;-72
2022/11/18 01:43:58;;;;;;;6.80;1.80;;;;;;;9.36;100.00;99507.59;5255506;28;20147;-72
2022/11/18 01:46:31;;;;;;;4.67;1.77;;;;;;;9.42;100.00;99511.38;5256728;28;20033;-72
2022/11/18 01:49:09;;;;;;;4.88;1.65;;;;;;;9.47;100.00;99509.09;5255273;28;20341;-72
2022/11/18 01:51:46;;;;;;;3.97;1.85;;;;;;;9.42;100.00;99514.81;5255539;28;20044;-71
2022/11/18 01:54:32;;;;;;;6.65;2.17;;;;;;;9.52;100.00;99514.72;5255878;28;20037;-72
2022/11/18 01:57:10;;;;;;;5.68;1.70;;;;;;;9.46;100.00;99518.75;5256258;28;20106;-72
2022/11/18 01:59:45;;;;;;;6.00;1.58;;;;;;;9.44;100.00;99518.09;5254305;28;20032;-71
2022/11/18 02:02:16;;;;;;;6.88;2.38;;;;;;;9.41;100.00;99521.03;5255404;28;20525;-72
2022/11/18 02:04:51;;;;;;;3.92;1.80;;;;;;;9.45;100.00;99526.75;5255876;28;20049;-71
2022/11/18 02:07:23;;;;;;;5.57;1.92;;;;;;;9.45;100.00;99527.56;5256620;28;20117;-72
2022/11/18 02:09:56;;;;;;;8.53;2.60;;;;;;;9.49;100.00;99528.09;5237086;28;20063;-72
2022/11/18 02:12:28;;;;;;;;;;;;;;;10.09;100.00;99530.63;5255736;28;20025;-71
2022/11/18 02:15:01;;;;;;;4.97;1.67;;;;;;;9.62;100.00;99536.34;5253832;28;19978;-72
2022/11/18 02:17:47;;;;;;;5.03;1.83;;;;;;;9.74;100.00;99534.28;5255822;28;20029;-72
2022/11/18 02:20:32;;;;;;;3.67;1.60;;;;;;;9.69;100.00;99533.91;5254424;28;20028;-72
2022/11/18 02:23:22;;;;;;;4.07;1.90;;;;;;;9.65;100.00;99540.41;5254410;28;20036;-72
2022/11/18 02:26:19;;;;;;;5.93;2.15;;;;;;;9.84;100.00;99545.41;5256324;28;20056;-71
2022/11/18 02:29:02;;;;;;;4.75;1.73;;;;;;;9.69;100.00;99544.34;5255513;28;20032;-72
2022/11/18 02:32:08;;;;;;;5.35;1.67;;;;;;;9.91;100.00;99541.19;5234174;28;20068;-72
2022/11/18 02:34:52;;;;;;;7.28;2.15;;;;;;;9.86;100.00;99555.72;5254084;28;20041;-72
2022/11/18 02:37:46;;;;;;;3.80;1.92;;;;;;;9.96;100.00;99551.19;5255790;28;20044;-71
2022/11/18 02:40:24;;;;;;;5.32;1.75;;;;;;;9.85;100.00;99557.53;5255996;28;20047;-72
2022/11/18 02:43:03;;;;;;;3.53;1.85;;;;;;;9.84;100.00;99557.66;5272726;22;20885;-67
2022/11/18 02:45:38;;;;;;;3.53;2.00;;;;;;;9.83;100.00;99559.47;5270543;28;20044;-68
2022/11/18 02:48:11;;;;;;;4.22;1.80;;;;;;;9.81;100.00;99558.81;5276528;28;20028;-68
2022/11/18 02:50:45;;;;;;;3.58;1.85;;;;;;;9.80;100.00;99572.84;5275715;28;20590;-68
2022/11/18 02:53:19;;;;;;;4.15;1.80;;;;;;;9.85;100.00;99569.75;5274340;28;20384;-68
2022/11/18 02:55:52;;;;;;;7.97;2.40;;;;;;;9.81;100.00;99573.69;5276942;28;20032;-68
2022/11/18 02:58:24;;;;;;;5.75;2.58;;;;;;;9.83;100.00;99564.69;5277032;28;20493;-68
2022/11/18 03:00:58;;;;;;;5.30;2.00;;;;;;;9.87;100.00;99576.50;5272848;28;20404;-68
2022/11/18 03:03:35;;;;;;;6.43;2.65;;;;;;;9.85;100.00;99575.00;5275344;28;20047;-68
2022/11/18 03:06:09;;;;;;;3.40;1.80;;;;;;;9.84;100.00;99578.59;5270375;28;20031;-68
2022/11/18 03:08:49;;;;;;;7.38;2.10;;;;;;;9.96;100.00;99579.97;5275953;28;20073;-68
2022/11/18 03:11:28;;;;;;;5.18;2.00;;;;;;;9.96;100.00;99578.19;5275674;28;20078;-68
2022/11/18 03:14:13;;;;;;;7.18;2.35;;;;;;;10.01;100.00;99582.94;5258898;28;20067;-71
2022/11/18 03:16:56;;;;;;;6.65;2.10;;;;;;;10.01;100.00;99593.41;5278127;28;20092;-68
2022/11/18 03:19:50;;;;;;;3.78;2.00;;;;;;;10.10;100.00;99591.63;5262579;28;20055;-68
2022/11/18 03:22:30;;;;;;;6.20;2.42;;;;;;;10.04;100.00;99592.25;5277553;28;20094;-68
2022/11/18 03:25:09;;;;;;;7.68;2.08;;;;;;;9.94;100.00;99585.34;5279453;28;20036;-68
2022/11/18 03:28:08;;;;;;;6.10;2.13;;;;;;;10.08;100.00;99596.22;5261390;28;20115;-68
2022/11/18 03:30:46;;;;;;;7.72;2.00;;;;;;;10.03;100.00;99601.09;5278863;28;20094;-68
2022/11/18 03:33:22;;;;;;;5.82;2.13;;;;;;;9.99;100.00;99606.63;5277487;28;20036;-68
2022/11/18 03:35:56;;;;;;;4.45;1.95;;;;;;;9.98;100.00;99599.75;5280253;28;20028;-68
2022/11/18 03:38:33;;;;;;;4.60;1.88;;;;;;;9.99;100.00;99611.03;5279632;28;20081;-68
2022/11/18 03:41:08;;;;;;;4.97;2.00;;;;;;;10.03;100.00;99608.94;5279565;28;20436;-68
2022/11/18 03:43:46;;;;;;;5.70;2.00;;;;;;;10.02;100.00;99620.38;5279476;28;20048;-68
2022/11/18 03:46:21;;;;;;;3.97;2.03;;;;;;;10.00;100.00;99617.94;5280303;28;20400;-68
2022/11/18 03:48:55;;;;;;;4.35;2.10;;;;;;;9.97;100.00;99623.47;5277301;28;20032;-69
2022/11/18 03:51:40;;;;;;;5.05;1.80;;;;;;;10.08;100.00;99631.06;5279347;28;20123;-68
2022/11/18 03:54:24;;;;;;;9.13;2.75;;;;;;;10.07;100.00;99639.03;5279810;28;20085;-68
2022/11/18 03:57:00;;;;;;;6.35;1.60;;;;;;;10.01;100.00;99637.06;5260978;28;20043;-68
2022/11/18 03:59:39;;;;;;;4.20;1.90;;;;;;;10.03;100.00;99633.31;5277619;28;20013;-68
2022/11/18 04:02:15;;;;;;;5.43;2.30;;;;;;;9.97;100.00;99639.19;5275990;28;20029;-68
2022/11/18 04:04:50;;;;;;;3.80;1.80;;;;;;;9.95;100.00;99641.13;5279233;28;20048;-68
2022/11/18 04:07:31;;;;;;;4.53;1.80;;;;;;;9.92;100.00;99644.03;5278539;28;20028;-68
2022/11/18 04:10:22;;;;;;;5.65;1.90;;;;;;;10.09;100.00;99655.41;5279432;28;20048;-68
2022/11/18 04:13:23;;;;;;;4.72;1.83;;;;;;;10.06;100.00;99668.81;5260473;28;20072;-67
2022/11/18 04:15:55;;;;;;;4.55;1.95;;;;;;;9.75;100.00;99666.66;5276842;28;20039;-68
2022/11/18 04:18:26;;;;;;;4.90;1.95;;;;;;;9.73;100.00;99671.22;5275524;28;20409;-68
2022/11/18 04:20:58;;;;;;;6.45;1.90;;;;;;;9.70;100.00;99667.13;5276247;28;20036;-68
2022/11/18 04:23:29;;;;;;;4.72;2.03;;;;;;;9.69;100.00;99667.28;5278945;28;20060;-68
2022/11/18 04:26:00;;;;;;;6.28;2.10;;;;;;;9.62;100.00;99668.84;5278709;28;20104;-68
2022/11/18 04:28:32;;;;;;;5.22;1.83;;;;;;;9.59;100.00;99675.22;5280767;28;20031;-68
2022/11/18 04:31:03;;;;;;;5.15;2.00;;;;;;;9.57;100.00;99668.50;5277280;28;20107;-68
2022/11/18 04:33:34;;;;;;;7.43;2.60;;;;;;;9.54;100.00;99680.06;5276127;28;20078;-69
2022/11/18 04:36:06;;;;;;;4.68;2.35;;;;;;;9.49;100.00;99682.34;5278580;28;20028;-68
2022/11/18 04:38:37;;;;;;;7.13;2.08;;;;;;;9.49;100.00;99683.16;5278696;28;20032;-68
2022/11/18 04:41:08;;;;;;;4.97;2.17;;;;;;;9.48;100.00;99688.53;5278149;28;20009;-68
2022/11/18 04:43:40;;;;;;;5.60;2.28;;;;;;;9.41;100.00;99690.94;5276460;28;20044;-68
2022/11/18 04:46:12;;;;;;;5.47;2.00;;;;;;;9.36;100.00;99695.00;5278443;28;20024;-68
2022/11/18 04:48:43;;;;;;;8.35;2.50;;;;;;;9.34;100.00;99702.13;5278627;28;20486;-68
2022/11/18 04:51:14;;;;;;;4.97;2.50;;;;;;;9.33;100.00;99701.31;5276565;28;20031;-69
2022/11/18 04:53:45;;;;;;;4.07;2.13;;;;;;;9.29;100.00;99702.59;5277327;28;20082;-70
2022/11/18 04:56:17;;;;;;;4.07;2.15;;;;;;;9.26;100.00;99701.09;5278145;28;20028;-69
2022/11/18 04:58:48;;;;;;;5.60;2.38;;;;;;;9.21;100.00;99711.19;5260376;28;20029;-68
2022/11/18 05:01:19;;;;;;;5.72;2.45;;;;;;;9.16;100.00;99708.19;5275220;28;20495;-68
2022/11/18 05:03:50;;;;;;;9.50;3.13;;;;;;;9.17;100.00;99711.63;5275983;28;20074;-68
2022/11/18 05:06:22;;;;;;;6.22;3.30;;;;;;;9.14;100.00;99712.75;5275172;28;20119;-68
2022/11/18 05:08:53;;;;;;;7.10;2.95;;;;;;;9.06;100.00;99714.47;5277310;28;20510;-68
2022/11/18 05:14:16;;;;;;;8.07;3.08;;;;;;;9.08;100.00;99733.41;5276668;28;20154;-68
2022/11/18 05:16:47;;;;;;;9.02;3.20;;;;;;;9.06;100.00;99733.56;5276927;28;20533;-68
2022/11/18 05:19:18;;;;;;;5.85;2.97;;;;;;;9.06;100.00;99733.56;5259113;28;20024;-68
2022/11/18 05:21:50;;;;;;;6.07;2.80;;;;;;;9.01;100.00;99730.56;5276572;28;20028;-68
2022/11/18 05:24:25;;;;;;;7.85;3.10;;;;;;;8.99;100.00;99738.56;5277513;28;20029;-68
2022/11/18 05:26:56;;;;;;;6.10;2.85;;;;;;;8.94;100.00;99738.19;5276948;28;20036;-68
2022/11/18 05:29:27;;;;;;;8.23;2.95;;;;;;;8.94;100.00;99739.94;5276647;28;20024;-68
2022/11/18 05:31:58;;;;;;;7.85;2.75;;;;;;;8.91;100.00;99743.69;5274550;28;20510;-68
2022/11/18 05:34:30;;;;;;;7.20;3.03;;;;;;;8.90;100.00;99743.81;5276228;28;20066;-68
2022/11/18 05:37:01;;;;;;;6.78;3.05;;;;;;;8.88;100.00;99746.59;5275835;28;20031;-68
2022/11/18 05:39:33;;;;;;;6.70;2.83;;;;;;;8.84;100.00;99753.06;5276551;28;20032;-68
2022/11/18 05:44:54;;;;;;;7.72;3.38;;;;;;;8.80;100.00;99756.13;5277485;28;20032;-68
2022/11/18 05:47:25;;;;;;;6.57;3.15;;;;;;;8.82;100.00;99756.78;5276643;28;20020;-68
2022/11/18 05:49:57;;;;;;;6.70;3.22;;;;;;;8.80;100.00;99761.34;5275310;28;20047;-68
2022/11/18 05:52:28;;;;;;;6.07;3.20;;;;;;;8.75;100.00;99756.53;5276294;28;20401;-68
2022/11/18 05:54:59;;;;;;;5.43;3.10;;;;;;;8.76;100.00;99774.69;5276859;28;20039;-68
2022/11/18 05:57:30;;;;;;;6.75;3.10;;;;;;;8.72;100.00;99772.53;5272996;28;20056;-68
2022/11/18 06:00:03;;;;;;;6.00;2.85;;;;;;;8.74;100.00;99778.41;5276207;28;20155;-68
2022/11/18 06:02:34;;;;;;;5.05;2.63;;;;;;;8.68;100.00;99777.22;5275020;28;20032;-68
2022/11/18 06:05:06;;;;;;;6.32;3.15;;;;;;;8.70;100.00;99775.25;5257898;28;20032;-68
2022/11/18 06:07:41;;;;;;;5.90;3.13;;;;;;;8.73;100.00;99780.19;5272200;28;20024;-68
2022/11/18 06:10:21;;;;;;;7.57;3.45;;;;;;;8.66;100.00;99773.09;5275644;28;20435;-69
2022/11/18 06:12:59;;;;;;;6.85;3.33;;;;;;;8.70;100.00;99790.94;5272722;28;20480;-68
2022/11/18 06:15:36;;;;;;;10.43;3.38;;;;;;;8.68;100.00;99786.84;5276581;28;20024;-68
2022/11/18 06:18:23;;;;;;;6.38;3.30;;;;;;;8.65;100.00;99792.34;5257541;28;20043;-69
2022/11/18 06:21:04;;;;;;;5.47;3.22;;;;;;;8.72;100.00;99798.63;5276511;28;20029;-68
2022/11/18 06:23:37;;;;;;;6.07;3.35;;;;;;;8.58;100.00;99807.75;5276389;28;20089;-68
2022/11/18 06:26:08;;;;;;;;;;;;;;;9.13;100.00;99814.78;5271138;28;20086;-68
2022/11/18 06:28:41;;;;;;;6.25;3.70;;;;;;;8.59;100.00;99816.41;5273888;28;19912;-69
2022/11/18 06:31:13;;;;;;;5.25;3.33;;;;;;;8.57;100.00;99820.97;5275156;28;20497;-68
2022/11/18 06:33:44;;;;;;;6.38;3.38;;;;;;;8.53;100.00;99820.41;5277569;28;20035;-68
2022/11/18 06:36:15;;;;;;;5.85;3.60;;;;;;;8.55;100.00;99828.91;5275247;28;20028;-68
2022/11/18 06:38:46;;;;;;;8.48;3.40;;;;;;;8.51;100.00;99833.59;5270778;28;20017;-68
2022/11/18 06:41:18;;;;;;;7.47;3.83;;;;;;;8.50;100.00;99836.34;5273134;28;20078;-68
2022/11/18 06:43:49;;;;;;;7.30;3.70;;;;;;;8.50;100.00;99839.78;5257462;28;20051;-69
2022/11/18 06:49:10;;;;;;;7.97;4.30;;;;;;;8.49;100.00;99842.56;5275588;28;20123;-68
2022/11/18 06:51:41;;;;;;;9.07;4.38;;;;;;;8.50;100.00;99849.41;5280298;28;21072;-68
2022/11/18 06:54:13;;;;;;;6.35;3.85;;;;;;;8.47;100.00;99853.13;5279127;28;20056;-69
2022/11/18 06:56:45;;;;;;;9.98;4.13;;;;;;;8.48;100.00;99859.16;5281179;28;20032;-68
2022/11/18 06:59:22;;;;;;;6.50;3.72;;;;;;;8.42;100.00;99855.34;5263852;28;20082;-68
2022/11/18 07:01:53;;;;;;;8.48;3.65;;;;;;;8.43;100.00;99866.59;5280440;28;20028;-68
2022/11/18 07:04:24;;;;;;;8.30;3.67;;;;;;;8.38;100.00;99866.19;5262373;28;20028;-68
2022/11/18 07:06:56;;;;;;;6.10;3.83;;;;;;;8.37;100.00;99878.44;5281098;28;20060;-69
2022/11/18 07:09:27;;;;;;;6.78;3.85;;;;;;;8.36;100.00;99879.34;5280242;28;20744;-68
2022/11/18 07:11:58;;;;;;;6.80;3.70;;;;;;;8.35;100.00;99879.50;5279969;28;20031;-68
2022/11/18 07:14:30;;;;;;;7.25;3.50;;;;;;;8.31;100.00;99878.13;5281362;28;20028;-68
2022/11/18 07:17:01;;;;;;;9.63;4.28;;;;;;;8.27;100.00;99883.63;5279846;28;20040;-68
2022/11/18 07:19:33;;;;;;;8.07;3.55;;;;;;;8.32;100.00;99880.59;5279117;28;20129;-69
2022/11/18 07:22:04;;;;;;;7.30;3.65;;;;;;;8.25;100.00;99889.91;5280124;28;20258;-68
2022/11/18 07:24:36;;;;;;;5.95;3.63;;;;;;;8.16;100.00;99896.81;5280801;28;20032;-69
2022/11/18 07:27:08;;;;;;;5.60;3.55;;;;;;;8.08;100.00;99893.25;5280131;28;20042;-70
2022/11/18 07:29:39;;;;;;;6.55;3.95;;;;;;;8.07;100.00;99897.63;5277929;28;20024;-69
2022/11/18 07:32:10;;;;;;;7.32;3.88;;;;;;;8.06;100.00;99898.56;5279618;28;20024;-70
2022/11/18 07:34:41;;;;;;;8.40;3.80;;;;;;;8.08;100.00;99903.69;5276096;28;20028;-69
2022/11/18 07:37:13;;;;;;;6.97;3.60;;;;;;;8.04;100.00;99914.38;5280225;28;20097;-69
2022/11/18 07:39:44;;;;;;;7.55;3.80;;;;;;;8.08;100.00;99914.94;5280374;28;20047;-69
2022/11/18 07:42:15;;;;;;;7.82;4.13;;;;;;;8.02;100.00;99910.25;5278282;28;20048;-70
2022/11/18 07:44:46;;;;;;;6.43;3.40;;;;;;;8.03;100.00;99915.34;5279312;28;20492;-70
2022/11/18 07:47:18;;;;;;;6.38;3.90;;;;;;;8.03;100.00;99919.72;5280039;28;20519;-70
2022/11/18 07:49:49;;;;;;;8.05;3.75;;;;;;;8.04;100.00;99927.41;5277949;28;20523;-70
2022/11/18 07:52:20;;;;;;;6.80;3.60;;;;;;;8.07;100.00;99922.88;5278189;28;20055;-70
2022/11/18 07:54:51;;;;;;;8.55;3.97;;;;;;;8.09;100.00;99927.00;5277073;28;20546;-70
2022/11/18 07:57:23;;;;;;;5.53;4.05;;;;;;;8.09;100.00;99934.84;5278998;28;20476;-68
2022/11/18 07:59:54;;;;;;;6.28;3.40;;;;;;;8.11;100.00;99935.53;5277660;28;20474;-69
2022/11/18 08:02:25;;;;;;;6.80;3.78;;;;;;;8.11;100.00;99942.53;5277785;28;20024;-69
2022/11/18 08:04:56;;;;;;;8.40;3.45;;;;;;;8.14;100.00;99944.84;5278536;28;20028;-69
2022/11/18 08:07:28;;;;;;;9.25;3.58;;;;;;;8.10;100.00;99939.09;5277377;28;20058;-69
2022/11/18 08:09:59;;;;;;;8.38;4.35;;;;;;;8.15;100.00;99952.56;5277706;28;20031;-69
2022/11/18 08:12:30;;;;;;;9.50;4.00;;;;;;;8.17;100.00;99958.44;5279386;28;20059;-69
2022/11/18 08:15:02;;;;;;;7.30;4.03;;;;;;;8.19;100.00;99958.34;5278206;28;20047;-69
2022/11/18 08:17:33;;;;;;;5.40;3.53;;;;;;;8.16;100.00;99958.59;5278488;28;20062;-69
2022/11/18 08:20:05;;;;;;;8.43;4.15;;;;;;;8.22;100.00;99971.09;5279696;28;20456;-70
2022/11/18 08:22:36;;;;;;;7.30;4.13;;;;;;;8.21;100.00;99977.28;5279074;28;20028;-69
2022/11/18 08:25:08;;;;;;;7.97;4.20;;;;;;;8.19;100.00;99969.59;5273667;28;20036;-70
2022/11/18 08:27:39;;;;;;;5.93;4.20;;;;;;;8.22;100.00;99982.38;5277503;28;20032;-69
2022/11/18 08:30:11;;;;;;;7.55;4.07;;;;;;;8.21;100.00;99978.09;5274959;28;20242;-70
2022/11/18 08:32:42;;;;;;;7.32;3.97;;;;;;;8.26;100.00;99980.31;5277824;28;20067;-69
2022/11/18 08:35:14;;;;;;;10.77;4.63;;;;;;;8.33;100.00;99985.78;5277673;28;20035;-69
2022/11/18 08:37:45;;;;;;;7.78;3.85;;;;;;;8.33;100.00;99981.38;5277157;28;20111;-69
2022/11/18 08:40:16;;;;;;;8.07;4.43;;;;;;;8.36;100.00;99978.50;5276700;28;20093;-70
2022/11/18 08:42:47;;;;;;;7.65;4.25;;;;;;;8.37;100.00;99977.59;5276018;28;20045;-69
2022/11/18 08:45:19;;;;;;;11.02;4.63;;;;;;;8.43;100.00;99986.66;5258270;28;20024;-68
2022/11/18 08:47:50;;;;;;;7.15;4.55;;;;;;;8.47;100.00;99988.03;5276325;28;20028;-68
2022/11/18 08:50:21;;;;;;;8.57;4.20;;;;;;;8.51;100.00;99985.00;5276969;28;20026;-68
2022/11/18 08:52:53;;;;;;;8.30;5.05;;;;;;;8.55;100.00;99984.72;5276388;28;20024;-68
2022/11/18 08:55:24;;;;;;;7.90;5.35;;;;;;;8.57;100.00;99988.84;5279070;28;20047;-68
2022/11/18 08:57:55;;;;;;;6.35;4.35;;;;;;;8.62;100.00;99993.66;5278263;28;20056;-69
2022/11/18 09:00:26;;;;;;;9.57;4.70;;;;;;;8.67;100.00;99999.28;5275468;28;20505;-69
2022/11/18 09:02:58;;;;;;;8.48;4.72;;;;;;;8.71;100.00;99998.88;5276801;28;20025;-69
2022/11/18 09:05:29;;;;;;;9.60;5.10;;;;;;;8.78;100.00;100006.97;5274252;28;20059;-69
2022/11/18 09:08:00;;;;;;;6.97;4.38;;;;;;;8.80;100.00;100002.44;5276218;28;20049;-69
2022/11/18 09:10:33;;;;;;;11.85;4.82;;;;;;;8.85;100.00;100002.84;5277645;28;20055;-68
2022/11/18 09:13:04;;;;;;;9.15;5.22;;;;;;;8.88;100.00;100002.56;5276879;28;20047;-68
2022/11/18 09:15:35;;;;;;;8.32;4.82;;;;;;;8.91;100.00;100007.53;5277691;28;20020;-68
2022/11/18 09:18:07;;;;;;;10.27;4.78;;;;;;;9.00;100.00;100016.28;5278364;28;20028;-68
2022/11/18 09:20:39;;;;;;;5.30;4.05;;;;;;;9.04;100.00;100020.28;5277867;28;20028;-68
2022/11/18 09:23:10;;;;;;;8.73;5.07;;;;;;;9.14;100.00;100017.66;5277084;28;20070;-68
2022/11/18 09:25:41;;;;;;;8.93;4.20;;;;;;;9.17;100.00;100020.00;5276602;28;20059;-68
2022/11/18 09:28:12;;;;;;;10.40;5.00;;;;;;;9.18;100.00;100030.28;5278160;28;20421;-69
2022/11/18 09:30:44;;;;;;;7.60;4.40;;;;;;;9.25;100.00;100030.56;5276375;28;20512;-68
2022/11/18 09:33:15;;;;;;;6.07;4.30;;;;;;;9.31;100.00;100035.19;5277177;28;20025;-69
2022/11/18 09:35:47;;;;;;;8.38;3.88;;;;;;;9.37;100.00;100039.06;5277966;28;20021;-69
2022/11/18 09:38:18;;;;;;;7.60;4.15;;;;;;;9.42;100.00;100040.25;5277420;28;20033;-69
2022/11/18 09:41:22;;;;;;;8.30;3.85;;;;;;;9.79;100.00;100043.84;5275857;28;20039;-69
2022/11/18 09:44:12;;;;;;;10.45;4.03;;;;;;;9.62;100.00;100050.66;5232193;28;20414;-69
2022/11/18 09:47:07;;;;;;;8.35;3.92;;;;;;;9.72;100.00;100054.06;5275246;28;20854;-69
2022/11/18 09:49:44;;;;;;;6.97;3.55;;;;;;;9.85;100.00;100059.81;5276336;28;20307;-69
2022/11/18 09:52:20;;;;;;;8.55;3.65;;;;;;;9.86;100.00;100063.25;5276735;28;20447;-69
2022/11/18 09:54:52;;;;;;;8.70;4.00;;;;;;;9.85;100.00;100070.28;5276312;28;20021;-69
2022/11/18 09:57:30;;;;;;;7.00;3.63;;;;;;;9.98;100.00;100070.75;5276977;28;20054;-69
2022/11/18 10:00:12;;;;;;;11.73;3.50;;;;;;;10.10;100.00;100078.41;5277156;28;20112;-69
2022/11/18 10:02:58;;;;;;;7.05;2.85;;;;;;;10.19;100.00;100085.38;5277425;28;20028;-70
2022/11/18 10:06:02;;;;;;;5.82;3.15;;;;;;;10.23;100.00;100082.34;5276884;28;20469;-68
2022/11/18 10:08:37;;;;;;;6.88;3.22;;;;;;;10.29;100.00;100083.56;5277991;28;20046;-69
2022/11/18 10:11:20;;;;;;;10.63;3.15;;;;;;;10.32;100.00;100083.28;5275488;28;20038;-69
2022/11/18 10:14:09;;;;;;;10.55;3.38;;;;;;;10.43;100.00;100088.31;5276497;28;20025;-69
2022/11/18 10:16:49;;;;;;;8.85;3.65;;;;;;;10.55;100.00;100086.28;5278171;28;20528;-69
2022/11/18 10:19:38;;;;;;;8.93;3.35;;;;;;;10.64;100.00;100084.56;5276263;28;20056;-69
2022/11/18 10:22:20;;;;;;;6.05;2.95;;;;;;;10.71;100.00;100090.88;5276461;28;20031;-68
2022/11/18 10:24:54;;;;;;;8.98;2.53;;;;;;;10.70;100.00;100095.28;5280241;28;20086;-68
2022/11/18 10:27:36;;;;;;;6.93;2.67;;;;;;;10.81;100.00;100094.25;5280666;28;20024;-68
2022/11/18 10:30:17;;;;;;;7.53;2.47;;;;;;;10.82;100.00;100103.75;5280490;28;20048;-68
2022/11/18 10:33:18;;;;;;;4.07;2.03;;;;;;;10.94;100.00;100099.91;5281112;28;20020;-68
2022/11/18 10:35:50;;;;;;;6.75;2.60;;;;;;;10.72;100.00;100103.00;5274397;28;20052;-68
2022/11/18 10:38:21;;;;;;;7.53;2.30;;;;;;;10.71;100.00;100110.03;5280296;28;20028;-68
2022/11/18 10:41:03;;;;;;;7.63;2.17;;;;;;;10.86;100.00;100104.25;5282087;28;20119;-68
2022/11/18 10:43:51;;;;;;;7.88;2.55;;;;;;;10.89;100.00;100106.59;5280015;28;20041;-68
2022/11/18 10:46:26;;;;;;;8.93;2.17;;;;;;;10.88;100.00;100112.81;5280327;28;20032;-68
2022/11/18 10:49:09;;;;;;;8.73;2.13;;;;;;;11.00;100.00;100113.41;5281081;28;20073;-68
2022/11/18 10:51:43;;;;;;;7.70;2.20;;;;;;;10.92;100.00;100112.34;5276902;28;20039;-68
2022/11/18 10:54:21;;;;;;;8.27;2.65;;;;;;;10.95;100.00;100116.50;5279530;28;20021;-68
2022/11/18 10:57:00;;;;;;;7.45;1.83;;;;;;;10.90;100.00;100116.09;5278937;28;20036;-68
2022/11/18 10:59:41;;;;;;;6.72;2.10;;;;;;;11.07;100.00;100117.91;5279975;28;20020;-68
2022/11/18 11:02:38;;;;;;;8.55;2.65;;;;;;;11.12;100.00;100123.50;5278721;28;20446;-69
2022/11/18 11:05:19;;;;;;;7.10;2.30;;;;;;;11.18;100.00;100122.09;5278980;28;20037;-68
2022/11/18 11:08:05;;;;;;;8.75;2.42;;;;;;;11.22;100.00;100122.59;5279320;28;20390;-69
2022/11/18 11:10:36;;;;;;;5.45;2.30;;;;;;;11.03;100.00;100115.72;5276090;28;20078;-68
2022/11/18 11:13:15;;;;;;;7.55;2.70;;;;;;;11.22;100.00;100130.47;5279679;28;20469;-68
2022/11/18 11:15:50;;;;;;;7.20;2.33;;;;;;;11.13;100.00;100132.19;5276988;28;20035;-69
2022/11/18 11:18:42;;;;;;;7.47;2.28;;;;;;;11.20;100.00;100130.59;5279053;28;20496;-69
2022/11/18 11:21:15;;;;;;;7.80;2.25;;;;;;;11.14;100.00;100134.66;5279607;28;20111;-68
2022/11/18 11:23:46;;;;;;;6.93;2.45;;;;;;;11.16;100.00;100130.09;5279622;28;20024;-68
2022/11/18 11:26:36;;;;;;;6.03;2.47;;;;;;;11.30;100.00;100136.59;5278670;28;20084;-68
2022/11/18 11:29:31;;;;;;;5.88;2.30;;;;;;;11.40;100.00;100137.34;5277655;28;20040;-68
2022/11/18 11:32:28;;;;;;;8.23;2.42;;;;;;;11.54;100.00;100137.75;5278476;28;20067;-68
2022/11/18 11:35:24;;;;;;;6.93;2.20;;;;;;;11.52;100.00;100134.47;5277965;28;20040;-68
2022/11/18 11:38:04;;;;;;;9.52;2.40;;;;;;;11.42;100.00;100143.25;5278839;28;20059;-68
2022/11/18 11:40:35;;;;;;;6.93;2.53;;;;;;;11.30;100.00;100146.28;5276827;28;20537;-69
2022/11/18 11:43:33;;;;;;;6.97;2.08;;;;;;;11.57;100.00;100134.81;5277833;28;20041;-69
2022/11/18 11:46:25;;;;;;;5.22;2.20;;;;;;;11.51;100.00;100143.28;5269063;28;20740;-69
2022/11/18 11:49:02;;;;;;;9.30;2.45;;;;;;;11.43;100.00;100147.50;5279517;28;20032;-69
2022/11/18 11:51:53;;;;;;;8.77;2.67;;;;;;;11.44;100.00;100148.34;5278665;28;20070;-68
2022/11/18 11:54:39;;;;;;;4.93;2.25;;;;;;;11.38;100.00;100146.31;5279216;28;20477;-68
2022/11/18 11:57:17;;;;;;;6.93;2.30;;;;;;;11.50;100.00;100154.78;5280088;28;20396;-68
2022/11/18 12:00:02;;;;;;;9.35;2.58;;;;;;;11.63;100.00;100149.94;5278402;28;20504;-68
2022/11/18 12:03:10;;;;;;;7.47;2.38;;;;;;;11.80;100.00;100153.50;5277528;28;20024;-69
2022/11/18 12:05:42;;;;;;;4.70;2.28;;;;;;;11.66;100.00;100154.88;5278731;28;20032;-68
2022/11/18 12:08:19;;;;;;;6.18;2.30;;;;;;;11.80;100.00;100156.94;5279971;28;20488;-68
2022/11/18 12:10:58;;;;;;;5.65;2.33;;;;;;;11.95;100.00;100156.41;5277830;28;20086;-68
2022/11/18 12:13:55;;;;;;;6.50;2.70;;;;;;;12.04;100.00;100147.56;5278999;28;20028;-68
2022/11/18 12:16:52;;;;;;;6.78;2.88;;;;;;;12.17;100.00;100145.34;5276977;28;20032;-68
2022/11/18 12:19:24;;;;;;;10.27;2.60;;;;;;;11.99;100.00;100148.06;5276721;28;20119;-69
2022/11/18 12:21:59;;;;;;;8.65;3.15;;;;;;;11.88;100.00;100150.94;5277900;28;20469;-69
2022/11/18 12:24:41;;;;;;;9.63;3.38;;;;;;;11.86;100.00;100145.88;5278615;28;20024;-69
2022/11/18 12:27:22;;;;;;;8.02;2.92;;;;;;;11.89;100.00;100147.34;5277984;28;20043;-69